createdAt,value
2022-10-17T00:01:33.060Z,2.47
2022-10-17T00:04:18.592Z,2.35
2022-10-17T00:07:04.100Z,2.42
2022-10-17T00:09:50.402Z,2.67
2022-10-17T00:12:36.256Z,2.60
2022-10-17T00:15:22.299Z,2.45
2022-10-17T00:18:08.077Z,2.60
2022-10-17T00:20:54.482Z,2.85
2022-10-17T00:23:40.389Z,2.95
2022-10-17T00:26:26.239Z,2.38
2022-10-17T00:29:11.934Z,2.38
2022-10-17T00:31:58.036Z,2.40
2022-10-17T00:34:44.129Z,2.45
2022-10-17T00:37:31.727Z,2.45
2022-10-17T00:40:17.912Z,2.33
2022-10-17T00:43:15.331Z,2.83
2022-10-17T00:46:00.670Z,2.25
2022-10-17T00:48:49.174Z,3.55
2022-10-17T00:51:43.146Z,2.13
2022-10-17T00:54:35.475Z,2.60
2022-10-17T00:57:21.260Z,2.42
2022-10-17T01:00:09.900Z,2.72
2022-10-17T01:02:55.530Z,2.63
2022-10-17T01:05:43.112Z,2.55
2022-10-17T01:08:29.051Z,2.50
2022-10-17T01:11:20.570Z,2.65
2022-10-17T01:14:27.625Z,2.38
2022-10-17T01:17:33.258Z,2.58
2022-10-17T01:20:27.755Z,2.55
2022-10-17T01:23:25.778Z,2.63
2022-10-17T01:26:27.500Z,2.65
2022-10-17T01:29:27.458Z,2.70
2022-10-17T01:32:37.976Z,2.45
2022-10-17T01:35:37.283Z,2.85
2022-10-17T01:38:38.213Z,3.10
2022-10-17T01:41:27.121Z,2.83
2022-10-17T01:44:24.002Z,2.63
2022-10-17T01:47:15.085Z,2.63
2022-10-17T01:50:07.114Z,2.60
2022-10-17T01:52:57.013Z,2.15
2022-10-17T01:55:46.255Z,2.70
2022-10-17T01:58:36.267Z,2.60
2022-10-17T02:04:11.801Z,2.42
2022-10-17T02:06:57.707Z,2.88
2022-10-17T02:09:43.946Z,3.13
2022-10-17T02:12:32.394Z,2.80
2022-10-17T02:15:43.218Z,2.75
2022-10-17T02:18:47.682Z,2.70
2022-10-17T02:21:53.682Z,2.70
2022-10-17T02:25:07.614Z,2.78
2022-10-17T02:28:02.842Z,2.80
2022-10-17T02:31:03.249Z,2.67
2022-10-17T02:36:47.764Z,2.60
2022-10-17T02:39:36.264Z,2.83
2022-10-17T02:42:23.514Z,2.83
2022-10-17T02:45:12.235Z,2.95
2022-10-17T02:48:19.305Z,2.60
2022-10-17T02:51:09.864Z,3.17
2022-10-17T02:54:14.768Z,3.17
2022-10-17T02:57:15.670Z,3.15
2022-10-17T03:00:04.405Z,3.22
2022-10-17T03:02:52.264Z,3.05
2022-10-17T03:05:37.976Z,3.08
2022-10-17T03:08:25.345Z,3.30
2022-10-17T03:11:10.950Z,3.05
2022-10-17T03:13:56.460Z,3.38
2022-10-17T03:16:42.504Z,3.05
2022-10-17T03:19:31.483Z,2.78
2022-10-17T03:25:05.699Z,2.88
2022-10-17T03:27:54.427Z,3.33
2022-10-17T03:30:40.931Z,3.15
2022-10-17T03:33:27.489Z,3.25
2022-10-17T03:36:16.367Z,3.17
2022-10-17T03:39:04.206Z,3.10
2022-10-17T03:41:50.059Z,3.42
2022-10-17T03:44:35.713Z,3.58
2022-10-17T03:47:21.582Z,3.47
2022-10-17T03:50:08.734Z,3.00
2022-10-17T03:52:56.060Z,2.97
2022-10-17T03:55:41.684Z,3.20
2022-10-17T03:58:29.406Z,3.33
2022-10-17T04:01:18.351Z,3.95
2022-10-17T04:04:05.508Z,3.80
2022-10-17T04:06:54.315Z,3.45
2022-10-17T04:09:40.411Z,3.63
2022-10-17T04:12:30.704Z,3.97
2022-10-17T04:15:17.158Z,3.65
2022-10-17T04:20:50.467Z,3.72
2022-10-17T04:23:36.604Z,3.72
2022-10-17T04:26:32.446Z,3.40
2022-10-17T04:29:19.392Z,3.40
2022-10-17T04:32:08.639Z,3.50
2022-10-17T04:35:02.084Z,3.35
2022-10-17T04:37:47.451Z,2.85
2022-10-17T04:40:37.001Z,3.70
2022-10-17T04:43:22.713Z,3.85
2022-10-17T04:46:10.815Z,3.72
2022-10-17T04:48:58.068Z,3.20
2022-10-17T04:51:44.061Z,3.53
2022-10-17T04:54:50.107Z,3.40
2022-10-17T04:57:36.632Z,3.50
2022-10-17T05:00:36.045Z,3.40
2022-10-17T05:03:30.812Z,3.50
2022-10-17T05:06:22.399Z,4.00
2022-10-17T05:09:25.466Z,4.53
2022-10-17T05:12:10.907Z,3.40
2022-10-17T05:14:59.987Z,3.70
2022-10-17T05:17:47.838Z,3.92
2022-10-17T05:20:34.310Z,3.00
2022-10-17T05:23:20.659Z,2.78
2022-10-17T05:26:06.622Z,3.80
2022-10-17T05:28:53.167Z,3.15
2022-10-17T05:31:41.998Z,3.30
2022-10-17T05:34:27.484Z,3.47
2022-10-17T05:37:13.236Z,4.03
2022-10-17T05:40:01.790Z,4.00
2022-10-17T05:42:49.187Z,4.72
2022-10-17T05:45:37.275Z,4.80
2022-10-17T05:48:23.929Z,4.75
2022-10-17T05:51:11.594Z,4.68
2022-10-17T05:53:59.236Z,4.80
2022-10-17T05:56:51.127Z,4.00
2022-10-17T05:59:36.962Z,4.20
2022-10-17T06:02:29.583Z,3.92
2022-10-17T06:05:17.426Z,4.10
2022-10-17T06:08:02.928Z,4.03
2022-10-17T06:13:39.582Z,3.38
2022-10-17T06:16:31.669Z,3.45
2022-10-17T06:19:18.111Z,3.30
2022-10-17T06:22:05.310Z,3.40
2022-10-17T06:24:53.057Z,3.67
2022-10-17T06:27:38.521Z,4.25
2022-10-17T06:30:24.247Z,5.05
2022-10-17T06:33:10.366Z,5.22
2022-10-17T06:35:56.710Z,4.43
2022-10-17T06:38:43.876Z,4.95
2022-10-17T06:41:39.618Z,4.95
2022-10-17T06:44:30.677Z,4.10
2022-10-17T06:47:35.717Z,4.45
2022-10-17T06:50:29.669Z,4.10
2022-10-17T06:53:40.262Z,4.90
2022-10-17T06:56:43.811Z,4.10
2022-10-17T06:59:48.523Z,3.78
2022-10-17T07:02:38.729Z,3.88
2022-10-17T07:05:24.127Z,4.38
2022-10-17T07:08:09.662Z,4.07
2022-10-17T07:10:57.694Z,3.45
2022-10-17T07:13:44.071Z,3.63
2022-10-17T07:16:30.162Z,3.97
2022-10-17T07:19:26.961Z,3.20
2022-10-17T07:22:13.652Z,3.75
2022-10-17T07:25:02.444Z,3.90
2022-10-17T07:27:53.429Z,3.70
2022-10-17T07:30:40.546Z,3.03
2022-10-17T07:33:30.104Z,4.30
2022-10-17T07:36:16.389Z,3.83
2022-10-17T07:39:02.055Z,4.95
2022-10-17T07:41:50.771Z,3.85
2022-10-17T07:44:37.344Z,3.85
2022-10-17T07:47:23.964Z,3.95
2022-10-17T07:50:12.011Z,3.60
2022-10-17T07:52:58.664Z,3.03
2022-10-17T07:55:46.446Z,3.25
2022-10-17T07:58:32.741Z,3.20
2022-10-17T08:01:19.092Z,3.75
2022-10-17T08:04:05.016Z,4.00
2022-10-17T08:06:53.380Z,3.10
2022-10-17T08:09:43.254Z,3.53
2022-10-17T08:12:32.658Z,3.25
2022-10-17T08:15:18.593Z,2.88
2022-10-17T08:18:03.976Z,3.25
2022-10-17T08:20:49.432Z,3.72
2022-10-17T08:23:35.802Z,3.70
2022-10-17T08:26:21.511Z,3.63
2022-10-17T08:29:13.558Z,4.30
2022-10-17T08:32:01.215Z,3.53
2022-10-17T08:34:47.285Z,3.92
2022-10-17T08:37:33.333Z,4.15
2022-10-17T08:40:26.118Z,5.30
2022-10-17T08:43:17.489Z,3.33
2022-10-17T08:46:06.641Z,3.72
2022-10-17T08:48:52.538Z,3.67
2022-10-17T08:51:52.878Z,3.70
2022-10-17T08:54:43.348Z,3.63
2022-10-17T08:57:29.455Z,3.63
2022-10-17T09:00:20.691Z,3.42
2022-10-17T09:03:38.607Z,3.90
2022-10-17T09:06:50.597Z,3.33
2022-10-17T09:10:07.309Z,3.63
2022-10-17T09:13:06.915Z,3.40
2022-10-17T09:16:11.705Z,3.30
2022-10-17T09:19:01.630Z,3.45
2022-10-17T09:21:54.080Z,3.70
2022-10-17T09:24:48.402Z,3.38
2022-10-17T09:27:56.529Z,3.50
2022-10-17T09:31:00.742Z,3.17
2022-10-17T09:33:54.375Z,3.38
2022-10-17T09:36:40.956Z,3.42
2022-10-17T09:39:31.722Z,2.80
2022-10-17T09:42:24.136Z,3.05
2022-10-17T09:45:24.785Z,3.05
2022-10-17T09:48:35.467Z,3.40
2022-10-17T09:51:25.929Z,3.20
2022-10-17T09:54:25.590Z,2.90
2022-10-17T09:57:13.341Z,3.00
2022-10-17T10:00:05.421Z,3.20
2022-10-17T10:03:22.549Z,3.13
2022-10-17T10:06:20.239Z,2.90
2022-10-17T10:09:18.831Z,2.83
2022-10-17T10:12:15.912Z,3.10
2022-10-17T10:15:02.202Z,3.38
2022-10-17T10:17:48.060Z,3.58
2022-10-17T10:20:37.673Z,3.40
2022-10-17T10:23:24.328Z,3.00
2022-10-17T10:26:29.811Z,3.20
2022-10-17T10:29:21.540Z,3.17
2022-10-17T10:32:29.924Z,2.53
2022-10-17T10:35:35.520Z,2.60
2022-10-17T10:38:21.360Z,4.40
2022-10-17T10:41:09.434Z,2.70
2022-10-17T10:43:56.103Z,2.88
2022-10-17T10:46:41.982Z,2.80
2022-10-17T10:49:31.936Z,2.78
2022-10-17T10:52:43.231Z,2.90
2022-10-17T10:55:36.568Z,2.80
2022-10-17T10:59:04.995Z,2.97
2022-10-17T11:02:11.777Z,2.63
2022-10-17T11:05:02.022Z,3.05
2022-10-17T11:08:00.003Z,2.75
2022-10-17T11:10:57.658Z,3.05
2022-10-17T11:14:08.075Z,2.95
2022-10-17T11:16:58.733Z,2.45
2022-10-17T11:19:56.783Z,1.90
2022-10-17T11:23:25.846Z,2.65
2022-10-17T11:26:26.951Z,2.33
2022-10-17T11:29:13.772Z,2.17
2022-10-17T11:32:05.845Z,1.70
2022-10-17T11:35:01.007Z,2.13
2022-10-17T11:38:06.646Z,1.63
2022-10-17T11:40:58.592Z,1.85
2022-10-17T11:44:02.481Z,1.90
2022-10-17T11:46:57.014Z,1.63
2022-10-17T11:49:50.131Z,2.10
2022-10-17T11:52:56.454Z,3.00
2022-10-17T11:55:43.669Z,1.95
2022-10-17T11:58:50.491Z,1.85
2022-10-17T12:01:54.639Z,1.58
2022-10-17T12:04:56.885Z,1.65
2022-10-17T12:08:08.419Z,1.80
2022-10-17T12:11:19.530Z,1.73
2022-10-17T12:14:35.304Z,1.83
2022-10-17T12:17:38.800Z,1.40
2022-10-17T12:20:27.944Z,1.80
2022-10-17T12:23:13.398Z,1.80
2022-10-17T12:26:10.324Z,2.05
2022-10-17T12:28:57.335Z,1.63
2022-10-17T12:31:43.832Z,2.22
2022-10-17T12:34:29.624Z,2.22
2022-10-17T12:37:15.346Z,2.42
2022-10-17T12:40:01.039Z,1.42
2022-10-17T12:42:49.766Z,1.60
2022-10-17T12:45:50.218Z,1.40
2022-10-17T12:48:41.678Z,1.60
2022-10-17T12:51:37.905Z,2.17
2022-10-17T12:54:24.008Z,2.45
2022-10-17T12:57:30.956Z,2.08
2022-10-17T13:01:23.771Z,1.70
2022-10-17T13:04:05.751Z,1.70
2022-10-17T13:06:59.209Z,1.58
2022-10-17T13:09:45.314Z,1.90
2022-10-17T13:12:40.293Z,1.63
2022-10-17T13:15:27.839Z,1.90
2022-10-17T13:18:19.872Z,1.70
2022-10-17T13:21:15.296Z,2.55
2022-10-17T13:24:01.143Z,2.08
2022-10-17T13:26:47.470Z,1.67
2022-10-17T13:29:33.630Z,1.55
2022-10-17T13:32:19.144Z,1.70
2022-10-17T13:35:07.289Z,1.50
2022-10-17T13:37:54.218Z,2.20
2022-10-17T13:40:50.622Z,1.85
2022-10-17T13:43:36.492Z,1.95
2022-10-17T13:46:38.477Z,1.50
2022-10-17T13:49:37.154Z,1.58
2022-10-17T13:52:27.084Z,2.22
2022-10-17T13:55:17.918Z,1.80
2022-10-17T13:58:16.510Z,2.03
2022-10-17T14:01:02.646Z,1.40
2022-10-17T14:03:54.101Z,1.90
2022-10-17T14:06:49.856Z,5.60
2022-10-17T14:09:36.813Z,3.70
2022-10-17T14:12:22.900Z,3.63
2022-10-17T14:15:13.895Z,2.17
2022-10-17T14:18:07.710Z,2.40
2022-10-17T14:24:22.468Z,2.13
2022-10-17T14:27:35.611Z,1.75
2022-10-17T14:30:51.821Z,1.90
2022-10-17T14:33:33.892Z,1.90
2022-10-17T14:36:30.918Z,1.80
2022-10-17T14:39:22.171Z,2.10
2022-10-17T14:42:22.645Z,2.17
2022-10-17T14:45:14.104Z,2.33
2022-10-17T14:48:12.565Z,2.53
2022-10-17T14:51:11.980Z,1.80
2022-10-17T14:56:53.478Z,2.08
2022-10-17T14:59:53.919Z,1.75
2022-10-17T15:02:40.459Z,1.98
2022-10-17T15:05:26.069Z,1.80
2022-10-17T15:08:19.984Z,1.92
2022-10-17T15:11:05.623Z,1.80
2022-10-17T15:13:51.692Z,4.32
2022-10-17T15:16:39.395Z,1.90
2022-10-17T15:19:25.060Z,1.88
2022-10-17T15:22:11.848Z,1.70
2022-10-17T15:24:57.683Z,1.50
2022-10-17T15:27:43.080Z,1.58
2022-10-17T15:30:32.919Z,5.22
2022-10-17T15:36:04.064Z,2.00
2022-10-17T15:38:52.314Z,2.20
2022-10-17T15:41:37.794Z,2.20
2022-10-17T15:44:23.342Z,1.98
2022-10-17T15:47:19.511Z,1.88
2022-10-17T15:50:08.785Z,1.50
2022-10-17T15:52:54.489Z,1.73
2022-10-17T15:55:40.569Z,2.22
2022-10-17T15:58:28.344Z,2.03
2022-10-17T16:01:43.604Z,1.80
2022-10-17T16:04:30.594Z,2.17
2022-10-17T16:07:17.430Z,2.20
2022-10-17T16:10:03.582Z,1.73
2022-10-17T16:12:50.288Z,2.35
2022-10-17T16:15:36.326Z,1.95
2022-10-17T16:18:21.786Z,1.60
2022-10-17T16:21:13.892Z,2.55
2022-10-17T16:24:00.618Z,2.15
2022-10-17T16:26:46.180Z,1.90
2022-10-17T16:29:31.979Z,1.85
2022-10-17T16:32:17.313Z,2.10
2022-10-17T16:35:04.111Z,2.00
2022-10-17T16:37:50.288Z,2.50
2022-10-17T16:40:38.946Z,2.70
2022-10-17T16:43:27.299Z,2.33
2022-10-17T16:46:17.163Z,2.15
2022-10-17T16:49:05.046Z,2.25
2022-10-17T16:51:50.879Z,2.83
2022-10-17T16:54:37.115Z,2.30
2022-10-17T16:57:22.616Z,2.63
2022-10-17T17:00:08.983Z,2.33
2022-10-17T17:02:55.035Z,2.65
2022-10-17T17:05:40.525Z,2.60
2022-10-17T17:08:27.210Z,2.72
2022-10-17T17:11:17.282Z,2.40
2022-10-17T17:14:03.692Z,2.15
2022-10-17T17:16:49.397Z,3.58
2022-10-17T17:19:34.692Z,2.75
2022-10-17T17:22:20.243Z,2.58
2022-10-17T17:25:08.122Z,2.40
2022-10-17T17:27:53.851Z,2.33
2022-10-17T17:30:39.417Z,2.60
2022-10-17T17:33:26.267Z,2.88
2022-10-17T17:36:14.904Z,2.72
2022-10-17T17:39:02.574Z,2.15
2022-10-17T17:41:48.298Z,2.30
2022-10-17T17:44:34.008Z,2.25
2022-10-17T17:47:20.101Z,2.70
2022-10-17T17:50:06.313Z,2.67
2022-10-17T17:52:54.813Z,2.55
2022-10-17T17:55:41.211Z,3.40
2022-10-17T17:58:26.729Z,2.97
2022-10-17T18:01:22.178Z,2.47
2022-10-17T18:04:09.022Z,2.92
2022-10-17T18:06:57.363Z,2.45
2022-10-17T18:09:43.003Z,3.00
2022-10-17T18:12:30.272Z,2.70
2022-10-17T18:15:16.881Z,3.50
2022-10-17T18:18:02.606Z,2.63
2022-10-17T18:20:52.903Z,3.50
2022-10-17T18:23:43.082Z,3.63
2022-10-17T18:26:28.755Z,3.30
2022-10-17T18:29:16.337Z,2.72
2022-10-17T18:32:01.712Z,2.75
2022-10-17T18:34:47.403Z,2.80
2022-10-17T18:37:33.408Z,2.80
2022-10-17T18:40:18.908Z,2.78
2022-10-17T18:43:04.523Z,2.50
2022-10-17T18:45:50.067Z,2.20
2022-10-17T18:48:38.389Z,2.47
2022-10-17T18:51:25.847Z,2.40
2022-10-17T18:54:17.320Z,3.10
2022-10-17T18:57:02.690Z,2.75
2022-10-17T18:59:48.259Z,2.65
2022-10-17T19:02:35.676Z,2.75
2022-10-17T19:08:10.852Z,2.92
2022-10-17T19:10:56.415Z,3.38
2022-10-17T19:13:43.303Z,2.33
2022-10-17T19:16:35.211Z,2.70
2022-10-17T19:19:24.195Z,2.70
2022-10-17T19:22:10.501Z,3.47
2022-10-17T19:24:56.830Z,2.70
2022-10-17T19:27:42.715Z,2.70
2022-10-17T19:30:28.732Z,2.90
2022-10-17T19:33:14.643Z,2.80
2022-10-17T19:36:11.054Z,2.67
2022-10-17T19:38:59.014Z,2.70
2022-10-17T19:41:48.310Z,2.90
2022-10-17T19:44:34.336Z,2.83
2022-10-17T19:47:21.268Z,3.13
2022-10-17T19:50:07.739Z,2.72
2022-10-17T19:52:53.266Z,2.75
2022-10-17T19:55:39.319Z,2.70
2022-10-17T19:58:26.225Z,2.60
2022-10-17T20:01:19.479Z,2.35
2022-10-17T20:04:08.595Z,3.08
2022-10-17T20:06:59.648Z,2.17
2022-10-17T20:09:45.348Z,2.55
2022-10-17T20:12:31.231Z,2.40
2022-10-17T20:15:19.088Z,2.75
2022-10-17T20:18:07.100Z,2.65
2022-10-17T20:20:53.081Z,2.47
2022-10-17T20:23:40.106Z,2.63
2022-10-17T20:26:42.614Z,2.50
2022-10-17T20:29:29.674Z,2.72
2022-10-17T20:32:16.576Z,2.60
2022-10-17T20:35:02.296Z,3.10
2022-10-17T20:37:47.911Z,2.20
2022-10-17T20:40:35.408Z,2.60
2022-10-17T20:43:21.538Z,2.47
2022-10-17T20:46:29.487Z,3.22
2022-10-17T20:49:22.324Z,2.58
2022-10-17T20:52:08.012Z,2.40
2022-10-17T20:54:53.596Z,2.45
2022-10-17T20:57:39.103Z,2.53
2022-10-17T21:00:26.152Z,2.40
2022-10-17T21:03:11.753Z,2.67
2022-10-17T21:05:57.593Z,2.60
2022-10-17T21:08:45.170Z,2.75
2022-10-17T21:11:31.440Z,2.60
2022-10-17T21:14:17.039Z,2.90
2022-10-17T21:17:05.258Z,2.50
2022-10-17T21:19:52.054Z,2.63
2022-10-17T21:22:38.454Z,3.63
2022-10-17T21:25:24.028Z,3.25
2022-10-17T21:28:09.611Z,2.63
2022-10-17T21:30:55.190Z,2.70
2022-10-17T21:33:41.675Z,2.72
2022-10-17T21:36:28.032Z,2.38
2022-10-17T21:39:15.043Z,2.70
2022-10-17T21:42:00.937Z,2.47
2022-10-17T21:44:46.933Z,3.45
2022-10-17T21:47:38.553Z,2.60
2022-10-17T21:50:24.203Z,2.60
2022-10-17T21:53:09.714Z,2.85
2022-10-17T21:55:55.367Z,2.80
2022-10-17T21:58:41.169Z,2.17
2022-10-17T22:01:30.580Z,2.92
2022-10-17T22:04:18.424Z,2.78
2022-10-17T22:07:04.050Z,3.10
2022-10-17T22:09:49.465Z,2.67
2022-10-17T22:12:35.030Z,2.38
2022-10-17T22:15:22.082Z,2.78
2022-10-17T22:18:07.999Z,3.55
2022-10-17T22:20:54.101Z,2.72
2022-10-17T22:23:40.794Z,3.13
2022-10-17T22:26:29.475Z,2.63
2022-10-17T22:29:16.195Z,3.60
2022-10-17T22:32:02.107Z,2.55
2022-10-17T22:34:48.407Z,2.50
2022-10-17T22:37:34.138Z,2.50
2022-10-17T22:40:20.484Z,2.35
2022-10-17T22:43:06.259Z,2.65
2022-10-17T22:46:00.248Z,2.53
2022-10-17T22:48:45.736Z,2.50
2022-10-17T22:51:31.541Z,2.20
2022-10-17T22:54:17.292Z,2.55
2022-10-17T22:57:02.738Z,2.60
2022-10-17T22:59:48.152Z,2.67
2022-10-17T23:02:33.890Z,2.72
2022-10-17T23:05:19.685Z,2.63
2022-10-17T23:08:05.375Z,2.50
2022-10-17T23:10:51.269Z,2.60
2022-10-17T23:13:37.711Z,3.03
2022-10-17T23:16:22.980Z,2.33
2022-10-17T23:19:09.200Z,2.70
2022-10-17T23:21:54.627Z,3.17
2022-10-17T23:24:40.088Z,3.08
2022-10-17T23:27:25.412Z,2.42
2022-10-17T23:30:11.912Z,2.38
2022-10-17T23:32:57.802Z,2.53
2022-10-17T23:35:43.275Z,3.10
2022-10-17T23:38:28.663Z,2.40
2022-10-17T23:41:15.544Z,2.55
2022-10-17T23:44:00.871Z,2.60
2022-10-17T23:46:46.569Z,3.33
2022-10-17T23:49:32.624Z,2.80
2022-10-17T23:52:18.563Z,2.30
2022-10-17T23:55:04.700Z,3.13
2022-10-17T23:57:51.085Z,2.42
